Time;durP1;ratioP1;P1;durP2;ratioP2;P2;SDS_P1;SDS_P2;PMS_P1;PMS_P2;Temp;Humidity;BMP_temperature;BMP_pressure;BME280_temperature;BME280_humidity;BME280_pressure;Samples;Min_cycle;Max_cycle;Signal;HPM_P1;HPM_P2
2022/11/29 00:01:34;;;;;;;35.55;16.30;;;5.90;99.90;;;;;;5034391;28;20373;-74
2022/11/29 00:04:02;;;;;;;32.88;16.95;;;5.80;99.90;;;;;;5033584;28;20061;-74
2022/11/29 00:06:32;;;;;;;40.35;16.60;;;5.80;99.90;;;;;;5017293;28;20041;-74
2022/11/29 00:09:05;;;;;;;37.72;16.52;;;5.70;99.90;;;;;;5034401;28;20042;-74
2022/11/29 00:14:23;;;;;;;44.53;17.70;;;5.90;99.90;;;;;;5017202;28;20052;-75
2022/11/29 00:16:57;;;;;;;42.42;18.77;;;5.50;99.90;;;;;;5033329;28;20060;-73
2022/11/29 00:19:25;;;;;;;48.42;19.83;;;5.40;99.90;;;;;;5034270;28;20045;-74
2022/11/29 00:21:53;;;;;;;45.00;19.55;;;5.50;99.90;;;;;;5034405;28;20049;-74
2022/11/29 00:24:20;;;;;;;47.70;21.30;;;5.60;99.90;;;;;;5033221;28;20049;-73
2022/11/29 00:26:48;;;;;;;42.88;20.02;;;5.60;99.90;;;;;;5034732;28;20461;-74
2022/11/29 00:29:16;;;;;;;41.10;19.13;;;5.70;99.90;;;;;;5033189;28;20045;-74
2022/11/29 00:31:44;;;;;;;51.15;21.27;;;5.80;99.90;;;;;;5034300;28;20042;-73
2022/11/29 00:34:11;;;;;;;59.10;23.52;;;5.90;99.90;;;;;;5033885;28;20057;-74
2022/11/29 00:36:39;;;;;;;49.45;22.92;;;6.00;99.90;;;;;;5033137;28;20449;-74
2022/11/29 00:39:10;;;;;;;72.90;26.67;;;6.10;99.90;;;;;;5034212;28;20046;-74
2022/11/29 00:41:38;;;;;;;103.22;32.38;;;6.20;99.90;;;;;;5017081;28;20056;-74
2022/11/29 00:44:05;;;;;;;155.00;36.95;;;6.30;99.90;;;;;;5032903;28;20468;-74
2022/11/29 00:46:33;;;;;;;158.70;40.38;;;6.30;99.90;;;;;;5035430;28;20049;-74
2022/11/29 00:49:01;;;;;;;169.02;38.92;;;6.40;99.90;;;;;;5037774;28;20045;-74
2022/11/29 00:51:28;;;;;;;144.75;34.83;;;6.50;99.90;;;;;;5036381;28;20060;-74
2022/11/29 00:53:55;;;;;;;194.43;41.53;;;6.60;99.90;;;;;;5037436;28;20041;-74
2022/11/29 00:56:23;;;;;;;211.05;41.78;;;6.60;99.90;;;;;;5036429;28;20060;-74
2022/11/29 00:58:50;;;;;;;204.88;44.35;;;6.70;99.90;;;;;;5037395;28;20037;-74
2022/11/29 01:01:18;;;;;;;224.40;45.22;;;6.80;99.90;;;;;;5037250;28;20052;-73
2022/11/29 01:03:46;;;;;;;246.25;47.30;;;6.80;99.90;;;;;;5036243;28;20468;-73
2022/11/29 01:06:15;;;;;;;243.38;44.03;;;6.90;99.90;;;;;;5037651;28;20456;-74
2022/11/29 01:08:44;;;;;;;267.67;45.15;;;6.90;99.90;;;;;;5037156;28;20046;-74
2022/11/29 01:11:17;;;;;;;278.48;46.50;;;6.90;99.90;;;;;;5018807;28;20045;-74
2022/11/29 01:13:45;;;;;;;266.17;45.42;;;7.00;99.90;;;;;;5037287;28;20380;-74
2022/11/29 01:16:14;;;;;;;206.10;40.63;;;7.00;99.90;;;;;;5036041;28;20046;-74
2022/11/29 01:18:42;;;;;;;217.32;40.97;;;7.70;99.90;;;;;;5019566;28;20049;-74
2022/11/29 01:21:12;;;;;;;230.77;41.88;;;7.10;99.90;;;;;;5037115;28;20048;-74
2022/11/29 01:23:40;;;;;;;203.02;39.10;;;7.10;99.90;;;;;;5035599;28;20049;-74
2022/11/29 01:26:09;;;;;;;;;;;7.10;99.90;;;;;;5037393;28;20053;-74
2022/11/29 01:28:38;;;;;;;207.27;37.78;;;7.10;99.90;;;;;;5019620;28;19928;-74
2022/11/29 01:31:15;;;;;;;258.90;40.85;;;8.10;99.90;;;;;;5035732;28;20045;-73
2022/11/29 01:33:43;;;;;;;263.40;41.70;;;7.20;99.90;;;;;;5037070;28;20056;-74
2022/11/29 01:36:12;;;;;;;222.40;40.00;;;7.20;99.90;;;;;;5035588;28;20566;-73
2022/11/29 01:38:41;;;;;;;245.77;40.60;;;7.20;99.90;;;;;;5036717;28;20046;-74
2022/11/29 01:41:16;;;;;;;287.52;42.33;;;7.30;99.90;;;;;;5036810;28;20131;-73
2022/11/29 01:44:10;;;;;;;240.15;39.42;;;7.20;99.90;;;;;;5035918;28;20054;-74
2022/11/29 01:46:40;;;;;;;216.55;37.70;;;7.30;99.90;;;;;;5006714;28;20045;-74
2022/11/29 01:49:13;;;;;;;273.88;38.92;;;7.30;99.90;;;;;;5036439;28;20064;-74
2022/11/29 01:52:02;;;;;;;290.77;39.40;;;7.10;99.90;;;;;;5037095;28;20045;-74
2022/11/29 01:54:33;;;;;;;347.90;41.40;;;7.30;99.90;;;;;;5036431;28;20460;-74
2022/11/29 01:57:04;;;;;;;338.25;38.72;;;7.30;99.90;;;;;;5035403;28;20464;-73
2022/11/29 01:59:33;;;;;;;293.38;37.08;;;7.00;99.90;;;;;;5019064;28;20345;-74
2022/11/29 02:02:20;;;;;;;263.80;36.00;;;7.40;99.90;;;;;;5018752;28;20113;-74
2022/11/29 02:04:48;;;;;;;;;;;7.30;99.90;;;;;;5034624;28;20049;-74
2022/11/29 02:07:16;;;;;;;314.60;35.50;;;7.40;99.90;;;;;;5036092;28;19932;-74
2022/11/29 02:09:43;;;;;;;287.15;35.35;;;7.90;99.90;;;;;;5035025;28;20045;-73
2022/11/29 02:12:26;;;;;;;264.80;35.42;;;7.40;99.90;;;;;;5035895;28;20056;-74
2022/11/29 02:14:56;;;;;;;298.67;37.10;;;7.40;99.90;;;;;;5035840;28;20049;-74
2022/11/29 02:17:39;;;;;;;343.05;37.22;;;7.40;99.90;;;;;;5034943;28;20045;-73
2022/11/29 02:20:30;;;;;;;330.80;36.42;;;7.40;99.90;;;;;;5036069;28;20045;-74
2022/11/29 02:23:22;;;;;;;317.33;35.88;;;7.50;99.90;;;;;;5035169;28;20052;-74
2022/11/29 02:26:20;;;;;;;323.30;35.75;;;7.40;99.90;;;;;;5035718;28;20049;-74
2022/11/29 02:29:08;;;;;;;302.05;34.63;;;7.50;99.90;;;;;;5035778;28;20057;-74
2022/11/29 02:31:50;;;;;;;276.98;36.28;;;7.50;99.90;;;;;;5035179;28;20049;-74
2022/11/29 02:34:42;;;;;;;291.67;35.85;;;7.50;99.90;;;;;;5018662;28;20476;-74
2022/11/29 02:37:37;;;;;;;329.88;36.55;;;7.50;99.90;;;;;;5034303;28;20460;-74
2022/11/29 02:40:24;;;;;;;293.52;35.60;;;7.50;99.90;;;;;;5046388;28;20041;-74
2022/11/29 02:43:06;;;;;;;287.25;36.17;;;7.50;99.90;;;;;;5054469;28;20312;-74
2022/11/29 02:45:50;;;;;;;334.20;37.83;;;7.50;99.90;;;;;;5055449;28;20051;-73
2022/11/29 02:48:38;;;;;;;301.88;38.13;;;7.50;99.90;;;;;;5055607;28;20045;-74
2022/11/29 02:51:46;;;;;;;317.00;37.95;;;7.50;99.90;;;;;;5054484;28;20052;-74
2022/11/29 02:54:15;;;;;;;;;;;7.50;99.90;;;;;;5014298;28;20053;-74
2022/11/29 02:57:11;;;;;;;382.95;37.63;;;7.50;99.90;;;;;;5046694;28;19928;-74
2022/11/29 02:59:58;;;;;;;382.85;39.05;;;7.50;99.90;;;;;;5034641;28;20049;-74
2022/11/29 03:02:31;;;;;;;380.23;39.15;;;7.70;99.90;;;;;;5054987;28;20052;-71
2022/11/29 03:05:20;;;;;;;416.58;40.05;;;7.60;99.90;;;;;;5055085;28;20049;-74
2022/11/29 03:08:12;;;;;;;406.30;42.55;;;7.60;99.90;;;;;;5054858;28;20041;-74
2022/11/29 03:11:05;;;;;;;413.48;42.55;;;7.60;99.90;;;;;;5053249;28;20041;-74
2022/11/29 03:13:35;;;;;;;458.35;45.30;;;7.60;99.90;;;;;;5055274;28;20049;-74
2022/11/29 03:16:15;;;;;;;438.75;42.78;;;7.60;99.90;;;;;;5054036;28;20045;-74
2022/11/29 03:19:16;;;;;;;394.65;44.00;;;7.60;99.90;;;;;;5055007;28;20490;-73
2022/11/29 03:22:22;;;;;;;405.50;43.67;;;7.60;99.90;;;;;;5054969;28;20052;-73
2022/11/29 03:24:54;;;;;;;366.50;43.45;;;7.60;99.90;;;;;;5053754;28;20045;-73
2022/11/29 03:27:39;;;;;;;452.52;45.65;;;7.70;99.90;;;;;;5054750;28;20044;-73
2022/11/29 03:30:12;;;;;;;484.90;45.25;;;7.60;99.90;;;;;;5053596;28;20049;-73
2022/11/29 03:32:55;;;;;;;470.55;46.25;;;7.60;99.90;;;;;;5054846;28;20045;-73
2022/11/29 03:35:34;;;;;;;478.20;45.67;;;7.60;99.90;;;;;;5054357;28;20049;-73
2022/11/29 03:38:20;;;;;;;442.17;45.85;;;7.70;99.90;;;;;;5053435;28;20052;-73
2022/11/29 03:40:58;;;;;;;346.85;45.17;;;7.60;99.90;;;;;;5054987;28;20060;-73
2022/11/29 03:43:50;;;;;;;306.73;42.67;;;7.70;99.90;;;;;;5053665;28;20049;-73
2022/11/29 03:46:24;;;;;;;307.85;41.38;;;7.60;99.90;;;;;;5054187;28;20048;-74
2022/11/29 03:49:01;;;;;;;298.70;40.35;;;7.60;99.90;;;;;;5054424;28;20049;-73
2022/11/29 03:51:40;;;;;;;245.30;40.35;;;7.60;99.90;;;;;;5053505;28;20056;-73
2022/11/29 03:54:15;;;;;;;297.30;42.20;;;7.60;99.90;;;;;;5054335;28;20053;-73
2022/11/29 03:56:43;;;;;;;239.93;40.83;;;7.60;99.90;;;;;;5053245;28;20499;-73
2022/11/29 03:59:23;;;;;;;245.88;41.50;;;7.60;99.90;;;;;;5054636;28;20041;-73
2022/11/29 04:02:11;;;;;;;197.68;41.95;;;7.60;99.90;;;;;;5053477;28;20368;-73
2022/11/29 04:05:04;;;;;;;206.95;39.67;;;7.60;99.90;;;;;;5053269;28;20052;-74
2022/11/29 04:07:52;;;;;;;208.90;38.47;;;7.60;99.90;;;;;;5054307;28;20045;-74
2022/11/29 04:11:16;;;;;;;205.43;39.38;;;7.60;99.90;;;;;;5053164;28;20387;-73
2022/11/29 04:14:10;;;;;;;189.80;36.63;;;7.60;99.90;;;;;;5013469;28;20050;-74
2022/11/29 04:17:02;;;;;;;130.85;34.63;;;7.60;99.90;;;;;;5012054;28;20046;-73
2022/11/29 04:19:32;;;;;;;146.63;34.92;;;7.60;99.90;;;;;;5050733;28;20052;-73
2022/11/29 04:22:19;;;;;;;178.02;37.05;;;7.60;99.90;;;;;;5056631;28;20487;-73
2022/11/29 04:25:21;;;;;;;164.75;35.15;;;7.70;99.90;;;;;;5057091;28;20037;-73
2022/11/29 04:28:25;;;;;;;163.88;33.28;;;7.60;99.90;;;;;;5045068;28;20044;-73
2022/11/29 04:31:14;;;;;;;152.07;33.75;;;7.60;99.90;;;;;;5057315;28;20376;-73
2022/11/29 04:34:00;;;;;;;159.77;33.83;;;7.60;99.90;;;;;;5057757;28;20052;-74
2022/11/29 04:36:53;;;;;;;153.45;34.63;;;7.60;99.90;;;;;;5056589;28;20055;-73
2022/11/29 04:39:29;;;;;;;163.85;35.67;;;7.60;99.90;;;;;;5047846;28;20049;-73
2022/11/29 04:42:46;;;;;;;188.13;38.90;;;7.60;99.90;;;;;;5037743;28;20060;-73
2022/11/29 04:45:16;;;;;;;183.85;36.85;;;7.60;99.90;;;;;;5037610;28;20041;-73
2022/11/29 04:48:14;;;;;;;180.93;38.30;;;7.60;99.90;;;;;;5037969;28;20049;-73
2022/11/29 04:51:09;;;;;;;187.40;37.47;;;7.60;99.90;;;;;;5036615;28;20048;-73
2022/11/29 04:53:52;;;;;;;203.85;37.28;;;7.60;99.90;;;;;;5037902;28;20053;-74
2022/11/29 04:56:47;;;;;;;237.05;40.50;;;7.60;99.90;;;;;;5036406;28;20048;-73
2022/11/29 04:59:43;;;;;;;230.43;38.72;;;7.60;99.90;;;;;;5002371;28;20491;-74
2022/11/29 05:02:35;;;;;;;220.80;37.00;;;7.60;99.90;;;;;;5020038;28;20041;-74
2022/11/29 05:05:30;;;;;;;214.75;37.65;;;7.50;99.90;;;;;;5037459;28;20057;-73
2022/11/29 05:07:58;;;;;;;236.52;39.50;;;7.50;99.90;;;;;;5037231;28;20053;-74
2022/11/29 05:10:57;;;;;;;223.88;41.20;;;7.50;99.90;;;;;;5036174;28;20052;-73
2022/11/29 05:13:43;;;;;;;222.60;40.22;;;7.50;99.90;;;;;;5037058;28;20057;-73
2022/11/29 05:16:27;;;;;;;226.77;39.28;;;7.50;99.90;;;;;;5036317;28;20289;-74
2022/11/29 05:19:28;;;;;;;206.73;38.28;;;7.50;99.90;;;;;;5037277;28;20045;-73
2022/11/29 05:22:12;;;;;;;203.40;36.45;;;7.50;99.90;;;;;;5037845;28;20041;-73
2022/11/29 05:25:02;;;;;;;229.65;37.78;;;7.50;99.90;;;;;;5035916;28;20518;-73
2022/11/29 05:27:48;;;;;;;233.32;37.22;;;7.40;99.90;;;;;;5037197;28;20045;-73
2022/11/29 05:30:19;;;;;;;239.65;37.08;;;7.50;99.90;;;;;;5036031;28;20045;-73
2022/11/29 05:33:04;;;;;;;301.05;39.83;;;7.40;99.90;;;;;;5036472;28;20064;-73
2022/11/29 05:35:51;;;;;;;244.35;37.92;;;7.70;99.90;;;;;;5019735;28;20060;-73
2022/11/29 05:38:56;;;;;;;244.82;38.08;;;7.50;99.90;;;;;;5036659;28;20041;-73
2022/11/29 05:41:45;;;;;;;208.82;33.38;;;7.50;99.90;;;;;;5036819;28;20052;-73
2022/11/29 05:44:31;;;;;;;223.05;35.60;;;7.50;99.90;;;;;;5035691;28;20042;-73
2022/11/29 05:47:05;;;;;;;226.38;35.38;;;7.40;99.90;;;;;;5036897;28;20052;-73
2022/11/29 05:49:56;;;;;;;228.98;35.28;;;7.40;99.90;;;;;;5035813;28;20053;-74
2022/11/29 05:52:30;;;;;;;184.10;32.13;;;7.40;99.90;;;;;;5036686;28;20045;-74
2022/11/29 05:55:12;;;;;;;193.82;32.45;;;7.40;99.90;;;;;;5036331;28;20498;-74
2022/11/29 05:57:56;;;;;;;184.20;32.95;;;7.40;99.90;;;;;;5035307;28;20045;-73
2022/11/29 06:00:29;;;;;;;217.85;33.22;;;7.40;99.90;;;;;;5036616;28;20048;-74
2022/11/29 06:03:24;;;;;;;203.90;32.08;;;7.40;99.90;;;;;;5035327;28;20052;-74
2022/11/29 06:06:06;;;;;;;139.13;28.77;;;7.40;99.90;;;;;;5036703;28;20042;-73
2022/11/29 06:08:53;;;;;;;143.35;28.77;;;7.40;99.90;;;;;;5036205;28;20380;-74
2022/11/29 06:11:29;;;;;;;149.93;29.17;;;7.20;99.90;;;;;;5017830;28;20045;-73
2022/11/29 06:14:29;;;;;;;142.35;27.55;;;7.30;99.90;;;;;;5036228;28;20053;-73
2022/11/29 06:17:24;;;;;;;151.60;28.23;;;7.30;99.90;;;;;;5017582;28;20053;-74
2022/11/29 06:20:07;;;;;;;143.88;28.45;;;7.30;99.90;;;;;;5036055;28;20456;-73
2022/11/29 06:23:00;;;;;;;152.98;28.88;;;7.30;99.90;;;;;;5034975;28;20045;-73
2022/11/29 06:25:56;;;;;;;166.05;30.25;;;7.30;99.90;;;;;;5035884;28;20129;-73
2022/11/29 06:28:56;;;;;;;155.73;29.23;;;7.30;99.90;;;;;;5004002;28;20461;-74
2022/11/29 06:31:42;;;;;;;126.40;25.40;;;7.30;99.90;;;;;;5034591;28;20376;-73
2022/11/29 06:34:28;;;;;;;133.65;26.55;;;7.30;99.90;;;;;;5035664;28;20042;-72
2022/11/29 06:37:23;;;;;;;122.03;25.65;;;7.30;99.90;;;;;;5034906;28;20045;-73
2022/11/29 06:39:52;;;;;;;113.95;24.90;;;7.20;99.90;;;;;;5022070;28;20045;-74
2022/11/29 06:42:20;;;;;;;113.07;25.27;;;7.20;99.90;;;;;;5035446;28;20049;-73
2022/11/29 06:44:47;;;;;;;112.45;24.25;;;7.70;99.90;;;;;;5016548;28;20060;-73
2022/11/29 06:47:39;;;;;;;103.10;24.70;;;7.20;99.90;;;;;;5035323;28;20050;-73
2022/11/29 06:50:32;;;;;;;84.10;21.45;;;7.20;99.90;;;;;;5034269;28;20468;-73
2022/11/29 06:53:33;;;;;;;86.80;23.95;;;7.20;99.90;;;;;;5018282;28;20054;-73
2022/11/29 06:56:24;;;;;;;86.82;23.48;;;7.20;99.90;;;;;;5034773;28;20045;-72
2022/11/29 06:59:04;;;;;;;97.55;24.10;;;7.20;99.90;;;;;;5035361;28;20042;-73
2022/11/29 07:01:52;;;;;;;97.55;24.55;;;7.20;99.90;;;;;;5035133;28;20052;-73
2022/11/29 07:04:44;;;;;;;106.88;24.08;;;7.50;99.90;;;;;;5034187;28;20043;-73
2022/11/29 07:07:18;;;;;;;89.45;24.17;;;7.10;99.90;;;;;;5035044;28;20046;-73
2022/11/29 07:09:48;;;;;;;113.45;25.25;;;8.80;99.90;;;;;;5034045;28;20056;-72
2022/11/29 07:12:16;;;;;;;110.18;25.90;;;7.10;99.90;;;;;;5017758;28;20060;-74
2022/11/29 07:14:44;;;;;;;92.20;23.85;;;7.10;99.90;;;;;;5035001;28;20489;-73
2022/11/29 07:17:43;;;;;;;108.70;24.83;;;7.10;99.90;;;;;;5034226;28;20049;-73
2022/11/29 07:20:35;;;;;;;100.05;24.08;;;7.10;99.90;;;;;;5033610;28;20476;-74
2022/11/29 07:23:25;;;;;;;99.22;25.55;;;7.10;99.90;;;;;;5034100;28;20045;-72
2022/11/29 07:26:09;;;;;;;75.03;21.08;;;7.10;99.90;;;;;;5017868;28;20056;-74
2022/11/29 07:28:52;;;;;;;89.75;24.33;;;7.10;99.90;;;;;;5017518;28;20045;-73
2022/11/29 07:31:27;;;;;;;84.60;22.92;;;7.10;99.90;;;;;;5033614;28;20050;-72
2022/11/29 07:34:13;;;;;;;80.93;23.95;;;7.10;99.90;;;;;;5018589;28;20479;-75
2022/11/29 07:37:05;;;;;;;76.35;22.35;;;7.10;99.90;;;;;;4997398;28;20364;-76
2022/11/29 07:39:45;;;;;;;91.93;23.85;;;7.10;99.90;;;;;;5033998;28;20056;-77
2022/11/29 07:42:29;;;;;;;81.45;24.17;;;7.10;99.90;;;;;;5034711;28;20046;-76
2022/11/29 07:45:20;;;;;;;89.47;25.67;;;7.00;99.90;;;;;;5017965;28;20061;-76
2022/11/29 07:47:49;;;;;;;90.60;25.58;;;7.00;99.90;;;;;;5034438;28;20049;-75
2022/11/29 07:50:16;;;;;;;79.90;24.20;;;7.80;99.90;;;;;;5033532;28;20052;-75
2022/11/29 07:52:44;;;;;;;73.63;22.48;;;7.10;99.90;;;;;;5017162;28;20049;-76
2022/11/29 07:55:18;;;;;;;74.80;24.27;;;9.00;99.90;;;;;;5035125;28;20049;-75
2022/11/29 07:57:47;;;;;;;81.15;25.77;;;7.00;99.90;;;;;;5037570;28;20046;-77
2022/11/29 08:00:15;;;;;;;91.90;26.50;;;7.00;99.90;;;;;;5038314;28;20057;-75
2022/11/29 08:02:43;;;;;;;87.32;26.10;;;7.00;99.90;;;;;;5037509;28;20041;-76
2022/11/29 08:05:11;;;;;;;85.35;25.30;;;8.80;99.90;;;;;;5038322;28;20038;-75
2022/11/29 08:07:40;;;;;;;80.65;25.40;;;7.00;99.90;;;;;;5038244;28;20061;-75
2022/11/29 08:10:10;;;;;;;76.28;26.90;;;7.60;99.90;;;;;;5020162;28;20060;-74
2022/11/29 08:12:47;;;;;;;78.28;26.95;;;7.00;99.90;;;;;;5038261;28;20053;-76
2022/11/29 08:15:16;;;;;;;79.68;27.33;;;7.70;99.90;;;;;;5038084;28;20061;-72
2022/11/29 08:17:43;;;;;;;82.75;28.00;;;7.00;99.90;;;;;;5037224;28;20053;-79
2022/11/29 08:20:13;;;;;;;93.60;30.02;;;7.00;99.90;;;;;;5020848;28;20060;-74
2022/11/29 08:22:40;;;;;;;92.82;29.50;;;7.00;99.90;;;;;;5019544;28;20053;-75
2022/11/29 08:25:09;;;;;;;107.35;30.67;;;7.50;99.90;;;;;;5037979;28;20041;-71
2022/11/29 08:27:37;;;;;;;101.78;31.40;;;7.10;99.90;;;;;;5038068;28;20045;-74
2022/11/29 08:30:06;;;;;;;91.88;29.30;;;8.60;99.90;;;;;;5036886;28;20353;-76
2022/11/29 08:32:34;;;;;;;90.18;30.67;;;7.10;99.90;;;;;;5037666;28;20060;-73
2022/11/29 08:35:02;;;;;;;81.30;28.33;;;8.30;99.90;;;;;;5037801;28;20384;-73
2022/11/29 08:37:30;;;;;;;78.78;28.95;;;7.10;99.90;;;;;;5019450;28;20379;-74
2022/11/29 08:39:57;;;;;;;89.07;28.17;;;7.70;99.90;;;;;;5046326;28;20486;-75
2022/11/29 08:42:25;;;;;;;69.93;28.85;;;7.10;99.90;;;;;;5057617;28;20041;-76
2022/11/29 08:44:53;;;;;;;70.88;27.40;;;8.50;99.90;;;;;;5055679;28;20049;-75
2022/11/29 08:47:36;;;;;;;64.68;25.52;;;7.80;99.90;;;;;;5057628;28;20048;-76
2022/11/29 08:50:15;;;;;;;58.58;24.58;;;7.10;99.90;;;;;;5056341;28;20056;-75
2022/11/29 08:56:08;;;;;;;46.65;19.15;;;7.10;99.90;;;;;;5056898;28;20049;-76
2022/11/29 08:58:56;;;;;;;48.78;18.88;;;7.10;99.90;;;;;;5056784;28;20067;-76
2022/11/29 09:01:27;;;;;;;40.72;18.40;;;7.20;99.90;;;;;;5056364;28;20049;-75
2022/11/29 09:03:58;;;;;;;38.20;18.42;;;7.10;99.90;;;;;;5056770;28;20076;-76
2022/11/29 09:06:28;;;;;;;45.83;20.42;;;7.10;99.90;;;;;;5057525;28;20059;-76
2022/11/29 09:08:57;;;;;;;40.45;17.63;;;7.10;99.90;;;;;;5056821;28;20055;-76
2022/11/29 09:11:26;;;;;;;35.45;16.73;;;7.10;99.90;;;;;;5055052;28;20477;-75
2022/11/29 09:13:57;;;;;;;37.35;16.50;;;9.00;99.90;;;;;;5056580;28;20071;-76
2022/11/29 09:16:28;;;;;;;41.53;18.30;;;5.60;99.90;;;;;;5056150;28;20372;-75
2022/11/29 09:18:56;;;;;;;47.03;19.20;;;7.90;99.90;;;;;;5056371;28;20057;-74
2022/11/29 09:21:26;;;;;;;48.60;19.20;;;7.20;99.90;;;;;;5057039;28;20052;-76
2022/11/29 09:23:57;;;;;;;50.72;18.42;;;7.80;99.90;;;;;;5055419;28;20041;-75
2022/11/29 09:26:30;;;;;;;42.40;18.90;;;7.30;99.90;;;;;;5057218;28;20045;-75
2022/11/29 09:29:02;;;;;;;47.17;18.95;;;7.30;99.90;;;;;;5056401;28;20375;-76
2022/11/29 09:31:31;;;;;;;41.38;18.52;;;7.30;99.90;;;;;;5055835;28;20199;-76
2022/11/29 09:33:59;;;;;;;47.13;18.98;;;8.00;99.90;;;;;;5052480;28;20384;-75
2022/11/29 09:36:29;;;;;;;38.15;15.68;;;7.40;99.90;;;;;;5055710;28;20053;-76
2022/11/29 09:38:58;;;;;;;42.50;17.60;;;7.40;99.90;;;;;;5052071;28;20060;-77
2022/11/29 09:41:52;;;;;;;47.22;17.95;;;8.20;99.90;;;;;;5036953;28;20127;-75
2022/11/29 09:44:52;;;;;;;47.67;17.67;;;7.30;99.90;;;;;;5035729;28;20041;-76
2022/11/29 09:47:37;;;;;;;41.20;17.38;;;7.30;99.90;;;;;;4985508;28;20060;-75
2022/11/29 09:50:27;;;;;;;50.15;18.85;;;7.40;99.90;;;;;;4988125;28;20054;-75
2022/11/29 09:53:09;;;;;;;52.13;19.27;;;7.40;99.90;;;;;;5036234;28;20480;-82
2022/11/29 09:56:09;;;;;;;41.10;18.38;;;7.40;99.90;;;;;;5019463;28;20060;-77
2022/11/29 09:58:55;;;;;;;48.55;18.55;;;7.50;99.90;;;;;;5013988;28;20057;-75
2022/11/29 10:02:13;;;;;;;39.95;16.67;;;7.50;99.90;;;;;;4999655;28;20041;-81
2022/11/29 10:04:56;;;;;;;38.65;18.10;;;7.70;99.90;;;;;;4985080;28;20065;-79
2022/11/29 10:07:39;;;;;;;41.92;16.45;;;9.30;99.90;;;;;;4999062;28;20392;-78
2022/11/29 10:10:27;;;;;;;38.85;17.13;;;7.60;99.90;;;;;;4998728;28;20453;-77
2022/11/29 10:13:16;;;;;;;34.22;16.35;;;7.60;99.90;;;;;;4999621;28;20038;-79
2022/11/29 10:15:54;;;;;;;42.25;17.83;;;10.40;99.90;;;;;;4969899;28;20049;-79
2022/11/29 10:18:39;;;;;;;48.75;19.02;;;8.60;99.90;;;;;;4983164;28;20061;-80
2022/11/29 10:21:30;;;;;;;43.80;17.65;;;9.00;99.90;;;;;;4998542;28;20038;-80
2022/11/29 10:24:17;;;;;;;41.70;19.05;;;8.70;99.90;;;;;;4982122;28;20050;-81
2022/11/29 10:27:15;;;;;;;39.63;18.27;;;7.70;99.90;;;;;;4993032;28;20503;-82
2022/11/29 10:29:50;;;;;;;28.80;13.93;;;7.80;99.90;;;;;;5015627;28;20060;-81
2022/11/29 10:32:30;;;;;;;33.88;15.48;;;8.00;99.90;;;;;;4999521;28;20053;-79
2022/11/29 10:35:21;;;;;;;33.65;13.50;;;8.80;99.90;;;;;;5017048;28;20056;-80
2022/11/29 10:38:03;;;;;;;34.67;14.70;;;7.90;99.90;;;;;;4999174;28;20041;-80
2022/11/29 10:41:05;;;;;;;25.83;12.43;;;8.00;99.90;;;;;;4986245;28;20053;-80
2022/11/29 10:44:21;;;;;;;30.42;14.85;;;10.20;99.90;;;;;;5015379;28;20149;-82
2022/11/29 10:47:31;;;;;;;31.00;15.13;;;8.00;99.90;;;;;;5010143;28;20046;-81
2022/11/29 10:50:41;;;;;;;;;;;7.90;99.90;;;;;;5015290;28;20488;-82
2022/11/29 10:54:07;;;;;;;32.35;15.43;;;8.10;99.90;;;;;;5016064;28;19921;-79
2022/11/29 10:57:27;;;;;;;34.42;14.93;;;7.80;99.90;;;;;;4953684;28;20050;-83
2022/11/29 11:00:11;;;;;;;32.75;15.38;;;8.10;99.90;;;;;;5016089;28;20369;-77
2022/11/29 11:03:30;;;;;;;38.28;16.67;;;8.20;99.90;;;;;;4997658;28;20401;-83
2022/11/29 11:06:30;;;;;;;38.22;19.05;;;8.20;99.90;;;;;;4998926;28;20038;-80
2022/11/29 11:09:37;;;;;;;42.05;19.77;;;8.20;99.90;;;;;;4984520;28;20083;-83
2022/11/29 11:13:08;;;;;;;41.58;21.63;;;8.10;99.90;;;;;;5015751;28;20046;-80
2022/11/29 11:15:57;;;;;;;42.08;21.02;;;8.00;99.90;;;;;;4983607;28;20049;-79
2022/11/29 11:19:27;;;;;;;44.20;19.95;;;10.70;99.90;;;;;;5015626;28;20046;-81
2022/11/29 11:23:16;;;;;;;36.65;19.25;;;8.10;99.90;;;;;;5014741;28;20064;-80
2022/11/29 11:26:15;;;;;;;44.33;21.45;;;8.00;99.90;;;;;;5010642;28;20050;-83
2022/11/29 11:29:28;;;;;;;40.50;21.10;;;8.20;99.90;;;;;;4995727;28;20121;-79
2022/11/29 11:32:28;;;;;;;44.65;21.80;;;11.00;99.90;;;;;;4998759;28;20358;-80
2022/11/29 11:35:25;;;;;;;41.58;21.15;;;11.00;99.90;;;;;;4982752;28;20046;-83
2022/11/29 11:38:26;;;;;;;46.70;21.13;;;8.30;99.90;;;;;;4978630;28;20057;-82
2022/11/29 11:45:38;;;;;;;43.80;20.95;;;7.60;99.90;;;;;;4901878;29;20067;-80
2022/11/29 11:48:26;;;;;;;42.13;20.08;;;8.20;99.90;;;;;;4901854;29;20052;-82
2022/11/29 11:51:25;;;;;;;47.07;20.23;;;8.10;99.90;;;;;;4916071;29;20056;-79
2022/11/29 11:55:25;;;;;;;39.80;18.77;;;8.70;99.90;;;;;;4881485;29;20495;-81
2022/11/29 11:59:18;;;;;;;35.90;18.27;;;8.10;99.90;;;;;;4874437;29;20049;-82
2022/11/29 12:02:48;;;;;;;35.72;18.38;;;6.00;99.90;;;;;;4889746;29;20064;-79
2022/11/29 12:05:39;;;;;;;31.40;16.95;;;8.30;99.90;;;;;;4916948;29;20480;-79
2022/11/29 12:14:16;;;;;;;44.22;19.60;;;8.30;99.90;;;;;;4937668;29;20051;-80
2022/11/29 12:17:21;;;;;;;32.33;16.58;;;8.00;99.90;;;;;;4952682;29;20055;-84
2022/11/29 12:20:35;;;;;;;30.35;15.35;;;8.10;99.90;;;;;;4939688;29;20163;-82
2022/11/29 12:23:22;;;;;;;32.28;15.88;;;7.90;99.90;;;;;;4930832;29;20043;-81
2022/11/29 12:26:19;;;;;;;36.63;17.23;;;10.30;99.90;;;;;;4954489;29;20051;-81
2022/11/29 12:29:18;;;;;;;40.05;17.13;;;7.80;99.90;;;;;;4953854;29;20055;-82
2022/11/29 12:32:18;;;;;;;40.47;18.38;;;8.10;99.90;;;;;;4959842;28;20059;-81
2022/11/29 12:35:07;;;;;;;41.40;18.95;;;8.00;99.90;;;;;;5014494;28;20369;-79
2022/11/29 12:38:20;;;;;;;40.53;18.00;;;8.10;99.90;;;;;;5012738;28;20054;-82
2022/11/29 12:41:17;;;;;;;33.42;16.50;;;8.10;99.90;;;;;;5013119;28;20054;-80
2022/11/29 12:44:16;;;;;;;32.60;16.45;;;7.00;99.90;;;;;;5016597;28;20042;-81
2022/11/29 12:47:56;;;;;;;35.00;16.48;;;8.30;99.90;;;;;;4997991;28;20050;-79
2022/11/29 12:50:36;;;;;;;34.72;16.48;;;8.30;99.90;;;;;;5000371;28;20050;-82
2022/11/29 12:54:03;;;;;;;;;;;;;;;;;;;;;
2022/11/29 12:57:03;;;;;;;32.83;16.75;;;8.10;99.90;;;;;;5019203;28;20481;-81
2022/11/29 13:00:36;;;;;;;30.15;15.05;;;8.50;99.90;;;;;;5012171;28;20468;-81
2022/11/29 13:03:56;;;;;;;32.13;15.55;;;9.60;99.90;;;;;;5035922;28;20464;-82
2022/11/29 13:10:23;;;;;;;37.03;17.65;;;8.30;99.90;;;;;;5032137;28;20060;-78
2022/11/29 13:13:44;;;;;;;37.22;17.40;;;8.20;99.90;;;;;;5025028;28;20052;-80
2022/11/29 13:16:41;;;;;;;;;;;;;;;;;;;;;
2022/11/29 13:20:25;;;;;;;;;;;;;;;;;;;;;
2022/11/29 13:28:31;;;;;;;35.97;17.05;;;8.40;99.90;;;;;;4915416;29;20063;-85
2022/11/29 13:31:48;;;;;;;33.78;16.50;;;8.20;99.90;;;;;;4909625;29;20383;-83
2022/11/29 13:38:57;;;;;;;33.65;17.42;;;8.40;99.90;;;;;;4987835;28;20054;-82
2022/11/29 13:42:50;;;;;;;;;;;;;;;;;;;;;
2022/11/29 13:46:58;;;;;;;38.72;17.42;;;7.80;99.90;;;;;;4922474;29;20051;-81
2022/11/29 13:50:44;;;;;;;35.63;16.90;;;8.30;99.90;;;;;;4927987;29;20055;-83
2022/11/29 13:54:10;;;;;;;38.45;18.08;;;8.80;99.90;;;;;;4957325;28;20058;-83
2022/11/29 13:56:46;;;;;;;37.58;17.60;;;7.50;99.90;;;;;;4922199;29;20062;-83
2022/11/29 13:59:52;;;;;;;43.80;18.17;;;8.20;99.90;;;;;;4974911;28;20053;-81
2022/11/29 14:02:36;;;;;;;39.72;19.08;;;8.50;99.90;;;;;;5036430;28;20060;-79
2022/11/29 14:05:30;;;;;;;43.25;18.98;;;7.90;99.90;;;;;;5035568;28;20041;-81
2022/11/29 14:08:29;;;;;;;40.13;18.42;;;8.50;99.90;;;;;;5019274;28;20038;-81
2022/11/29 14:11:52;;;;;;;;;;;;;;;;;;;;;
2022/11/29 14:14:47;;;;;;;40.50;17.15;;;8.30;99.90;;;;;;5019145;28;20049;-82
2022/11/29 14:17:45;;;;;;;38.35;16.50;;;8.60;99.90;;;;;;5034681;28;20060;-82
2022/11/29 14:20:42;;;;;;;32.28;15.43;;;10.10;99.90;;;;;;4955843;29;20059;-80
2022/11/29 14:24:05;;;;;;;40.67;16.63;;;10.30;99.90;;;;;;4925881;29;20054;-80
2022/11/29 14:27:16;;;;;;;34.28;16.00;;;8.20;99.90;;;;;;4956133;28;20422;-80
2022/11/29 14:34:46;;;;;;;;;;;;;;;;;;;;;
2022/11/29 14:38:05;;;;;;;34.47;16.13;;;10.80;99.90;;;;;;4955880;29;20367;-82
2022/11/29 14:41:19;;;;;;;40.67;17.45;;;9.10;99.90;;;;;;4956479;29;20051;-83
2022/11/29 14:44:29;;;;;;;;;;;7.50;99.90;;;;;;4938303;28;20049;-84
2022/11/29 14:47:12;;;;;;;30.25;16.00;;;8.00;99.90;;;;;;5031640;28;19928;-82
2022/11/29 14:50:29;;;;;;;39.60;18.08;;;8.10;99.90;;;;;;5010668;28;20053;-80
2022/11/29 14:53:46;;;;;;;36.55;18.08;;;8.20;99.90;;;;;;5035017;28;20072;-81
2022/11/29 14:56:43;;;;;;;41.65;19.58;;;8.30;99.90;;;;;;5017130;28;20072;-81